Time;durP1;ratioP1;P1;durP2;ratioP2;P2;SDS_P1;SDS_P2;PMS_P1;PMS_P2;Temp;Humidity;BMP_temperature;BMP_pressure;BME280_temperature;BME280_humidity;BME280_pressure;Samples;Min_cycle;Max_cycle;Signal;HPM_P1;HPM_P2
2021/06/05 00:00:47;;;;;;;;;;;;;;;23.26;51.22;101248.81;5037552;28;20293;-81
2021/06/05 00:03:32;;;;;;;;;;;;;;;23.09;51.80;101250.28;5053476;28;19913;-80
2021/06/05 00:06:18;;;;;;;;;;;;;;;23.01;51.85;101237.53;5056554;28;20381;-78
2021/06/05 00:09:04;;;;;;;;;;;;;;;22.95;52.05;101244.66;5056073;28;19912;-81
2021/06/05 00:11:49;;;;;;;;;;;;;;;22.99;52.16;101245.47;5052781;28;20301;-78
2021/06/05 00:14:33;;;;;;;;;;;;;;;22.77;53.35;101233.44;5057234;28;19916;-78
2021/06/05 00:17:37;;;;;;;;;;;;;;;22.74;53.41;101231.44;5040326;28;20003;-79
2021/06/05 00:20:23;;;;;;;;;;;;;;;22.78;52.99;101231.47;5041593;28;19924;-80
2021/06/05 00:23:09;;;;;;;;;;;;;;;22.81;52.91;101233.44;5053999;28;19913;-80
2021/06/05 00:25:54;;;;;;;;;;;;;;;22.74;52.96;101231.44;5053612;28;20296;-79
2021/06/05 00:28:39;;;;;;;;;;;;;;;22.77;53.01;101232.63;5058577;28;19916;-80
2021/06/05 00:31:42;;;;;;;;;;;;;;;22.62;53.36;101240.03;5053521;28;19916;-80
2021/06/05 00:34:46;;;;;;;;;;;;;;;22.43;54.73;101238.28;5052031;28;19912;-80
2021/06/05 00:37:31;;;;;;;;;;;;;;;22.33;54.52;101235.44;5042801;28;19913;-82
2021/06/05 00:40:16;;;;;;;;;;;;;;;22.44;54.29;101231.56;5052327;28;19916;-81
2021/06/05 00:43:01;;;;;;;;;;;;;;;22.31;55.10;101233.03;5045657;28;20385;-80
2021/06/05 00:46:24;;;;;;;;;;;;;;;22.42;54.67;101233.13;5048637;28;19912;-80
2021/06/05 00:49:11;;;;;;;;;;;;;;;22.32;55.15;101233.81;5047180;28;19913;-82
2021/06/05 00:51:57;;;;;;;;;;;;;;;22.35;55.22;101228.31;5049575;28;19912;-82
2021/06/05 00:54:46;;;;;;;;;;;;;;;22.38;55.01;101238.66;5039742;28;19912;-83
2021/06/05 00:57:31;;;;;;;;;;;;;;;22.42;54.67;101236.69;5054214;28;19920;-81
2021/06/05 01:00:23;;;;;;;;;;;;;;;22.34;55.29;101237.81;5037915;28;19917;-80
2021/06/05 01:03:08;;;;;;;;;;;;;;;22.35;55.14;101238.63;5037676;28;20304;-84
2021/06/05 01:05:58;;;;;;;;;;;;;;;22.27;55.16;101231.41;5039188;28;19913;-82
2021/06/05 01:08:50;;;;;;;;;;;;;;;22.35;54.85;101239.41;5051977;28;19917;-80
2021/06/05 01:11:54;;;;;;;;;;;;;;;22.35;55.08;101241.41;5040619;28;19920;-81
2021/06/05 01:14:42;;;;;;;;;;;;;;;22.29;55.41;101240.16;5052991;28;19912;-80
2021/06/05 01:17:37;;;;;;;;;;;;;;;22.24;55.55;101243.25;5038614;28;19913;-82
2021/06/05 01:20:34;;;;;;;;;;;;;;;22.28;55.58;101244.88;5056284;28;19921;-83
2021/06/05 01:23:40;;;;;;;;;;;;;;;22.31;55.15;101248.84;5038456;28;19913;-80
2021/06/05 01:26:29;;;;;;;;;;;;;;;22.27;55.57;101240.53;5042583;28;19912;-80
2021/06/05 01:29:19;;;;;;;;;;;;;;;22.33;55.38;101236.22;5042609;28;20608;-80
2021/06/05 01:32:05;;;;;;;;;;;;;;;22.31;55.17;101244.13;5056188;28;20292;-79
2021/06/05 01:34:54;;;;;;;;;;;;;;;22.31;54.87;101243.31;5042954;28;19912;-80
2021/06/05 01:37:42;;;;;;;;;;;;;;;22.26;55.21;101246.44;5022275;28;19913;-80
2021/06/05 01:40:37;;;;;;;;;;;;;;;22.28;55.33;101253.19;5035019;28;19916;-81
2021/06/05 01:43:41;;;;;;;;;;;;;;;22.25;55.52;101247.63;5051254;28;19913;-83
2021/06/05 01:46:29;;;;;;;;;;;;;;;22.16;55.60;101239.63;5030157;28;20284;-80
2021/06/05 01:49:34;;;;;;;;;;;;;;;22.23;55.83;101236.13;5027352;28;19913;-80
2021/06/05 01:52:39;;;;;;;;;;;;;;;22.30;55.55;101230.66;5046382;28;19913;-80
2021/06/05 01:55:28;;;;;;;;;;;;;;;22.27;55.37;101231.41;5026232;28;19916;-79
2021/06/05 01:58:32;;;;;;;;;;;;;;;22.23;55.72;101227.81;5051748;28;19913;-82
2021/06/05 02:01:35;;;;;;;;;;;;;;;22.24;55.45;101216.34;5035918;28;19916;-79
2021/06/05 02:04:24;;;;;;;;;;;;;;;22.24;55.50;101218.31;5054419;28;20384;-80
2021/06/05 02:07:14;;;;;;;;;;;;;;;22.26;55.85;101222.28;5036914;28;20412;-79
2021/06/05 02:10:06;;;;;;;;;;;;;;;22.24;55.54;101216.34;5017401;28;20377;-80
2021/06/05 02:12:53;;;;;;;;;;;;;;;22.21;55.89;101206.03;5054295;28;19912;-80
2021/06/05 02:15:52;;;;;;;;;;;;;;;22.13;56.11;101205.19;5035666;28;19912;-79
2021/06/05 02:18:42;;;;;;;;;;;;;;;22.11;56.03;101207.50;5044225;28;19917;-82
2021/06/05 02:21:33;;;;;;;;;;;;;;;22.12;56.00;101200.81;5045192;28;20305;-83
2021/06/05 02:24:22;;;;;;;;;;;;;;;22.07;56.22;101200.34;5039391;28;20393;-80
2021/06/05 02:27:07;;;;;;;;;;;;;;;22.04;56.40;101207.47;5052106;28;20296;-81
2021/06/05 02:29:59;;;;;;;;;;;;;;;21.97;56.67;101201.03;5042995;28;19913;-80
2021/06/05 02:33:05;;;;;;;;;;;;;;;22.09;55.95;101206.31;5054663;28;19913;-80
2021/06/05 02:35:55;;;;;;;;;;;;;;;22.06;56.20;101188.47;5057296;28;19912;-81
2021/06/05 02:38:59;;;;;;;;;;;;;;;22.04;56.20;101184.50;5056635;28;19912;-81
2021/06/05 02:41:47;;;;;;;;;;;;;;;22.06;56.06;101182.13;5025869;28;19913;-83
2021/06/05 02:44:34;;;;;;;;;;;;;;;22.12;55.90;101181.41;5043207;28;19913;-83
2021/06/05 02:47:19;;;;;;;;;;;;;;;22.04;56.25;101182.53;5038484;28;20376;-84
2021/06/05 02:50:06;;;;;;;;;;;;;;;22.06;55.92;101182.94;5045629;28;20384;-82
2021/06/05 02:52:52;;;;;;;;;;;;;;;22.09;56.05;101179.41;5055737;28;19913;-82
2021/06/05 02:55:57;;;;;;;;;;;;;;;22.08;56.28;101186.13;5040556;28;19912;-84
2021/06/05 02:58:42;;;;;;;;;;;;;;;22.09;56.05;101190.50;5044582;28;20381;-83
2021/06/05 03:01:29;;;;;;;;;;;;;;;22.08;56.09;101194.44;5056474;28;20381;-83
2021/06/05 03:04:16;;;;;;;;;;;;;;;22.05;56.21;101189.66;5062685;28;20392;-82
2021/06/05 03:07:02;;;;;;;;;;;;;;;22.19;56.04;101197.31;5040812;28;19912;-81
2021/06/05 03:09:47;;;;;;;;;;;;;;;22.21;56.55;101197.72;5011170;28;19913;-81
2021/06/05 03:12:32;;;;;;;;;;;;;;;22.29;57.21;101193.03;5037115;28;19913;-82
2021/06/05 03:15:18;;;;;;;;;;;;;;;22.10;57.30;101180.97;5034459;28;19912;-80
2021/06/05 03:18:03;;;;;;;;;;;;;;;22.08;57.82;101177.81;5055068;28;20373;-81
2021/06/05 03:20:49;;;;;;;;;;;;;;;21.87;59.23;101174.00;5026699;28;19921;-81
2021/06/05 03:23:34;;;;;;;;;;;;;;;21.75;60.25;101164.78;5036893;28;19913;-79
2021/06/05 03:26:22;;;;;;;;;;;;;;;21.77;60.10;101173.53;5052229;28;19912;-80
2021/06/05 03:29:07;;;;;;;;;;;;;;;21.92;58.79;101171.69;5041349;28;19916;-80
2021/06/05 03:31:55;;;;;;;;;;;;;;;21.90;59.14;101165.72;5054990;28;19912;-81
2021/06/05 03:34:42;;;;;;;;;;;;;;;21.97;58.60;101170.59;5041797;28;20012;-81
2021/06/05 03:37:30;;;;;;;;;;;;;;;22.05;59.14;101167.50;5047067;28;19916;-80
2021/06/05 03:40:19;;;;;;;;;;;;;;;22.09;59.20;101160.03;5041708;28;19925;-80
2021/06/05 03:43:04;;;;;;;;;;;;;;;22.04;58.87;101162.34;5039397;28;19912;-77
2021/06/05 03:45:51;;;;;;;;;;;;;;;22.04;59.12;101156.81;5038927;28;19916;-80
2021/06/05 03:48:39;;;;;;;;;;;;;;;21.93;59.11;101166.97;5053818;28;20304;-80
2021/06/05 03:51:26;;;;;;;;;;;;;;;21.91;59.49;101170.09;5051280;28;19913;-79
2021/06/05 03:54:12;;;;;;;;;;;;;;;22.00;59.05;101167.84;5054449;28;19913;-80
2021/06/05 03:56:57;;;;;;;;;;;;;;;21.90;59.79;101165.72;5055389;28;20380;-81
2021/06/05 03:59:42;;;;;;;;;;;;;;;21.84;60.05;101160.94;5057412;28;19917;-82
2021/06/05 04:02:26;;;;;;;;;;;;;;;21.90;59.74;101171.28;5054473;28;19917;-81
2021/06/05 04:05:11;;;;;;;;;;;;;;;22.02;58.78;101179.34;5060267;28;19912;-79
2021/06/05 04:07:56;;;;;;;;;;;;;;;22.12;58.71;101173.09;5046105;28;20316;-79
2021/06/05 04:10:40;;;;;;;;;;;;;;;22.04;59.14;101177.00;5055129;28;19913;-79
2021/06/05 04:13:25;;;;;;;;;;;;;;;21.99;59.04;101160.69;5036828;28;19913;-83
2021/06/05 04:16:29;;;;;;;;;;;;;;;21.89;59.63;101166.13;5038390;28;19913;-79
2021/06/05 04:19:14;;;;;;;;;;;;;;;22.00;58.97;101165.06;5034879;28;19917;-82
2021/06/05 04:22:17;;;;;;;;;;;;;;;22.07;58.60;101169.88;5038849;28;19912;-81
2021/06/05 04:25:20;;;;;;;;;;;;;;;22.10;58.90;101160.78;5051785;28;20384;-80
2021/06/05 04:28:06;;;;;;;;;;;;;;;22.06;59.37;101155.22;5057848;28;19912;-80
2021/06/05 04:31:09;;;;;;;;;;;;;;;21.95;59.80;101159.06;5055106;28;19912;-81
2021/06/05 04:33:54;;;;;;;;;;;;;;;21.92;59.92;101148.75;5050696;28;19995;-82
2021/06/05 04:36:39;;;;;;;;;;;;;;;21.80;60.10;101160.09;5048907;28;19912;-79
2021/06/05 04:39:24;;;;;;;;;;;;;;;22.03;58.95;101160.75;5044109;28;20539;-81
2021/06/05 04:42:09;;;;;;;;;;;;;;;22.14;58.69;101161.66;5048127;28;19932;-79
2021/06/05 04:44:53;;;;;;;;;;;;;;;22.08;59.23;101158.44;5052339;28;20297;-83
2021/06/05 04:47:38;;;;;;;;;;;;;;;21.98;59.75;101150.81;5047626;28;19913;-83
2021/06/05 04:50:25;;;;;;;;;;;;;;;22.01;60.07;101152.81;5030782;28;19912;-81
2021/06/05 04:53:09;;;;;;;;;;;;;;;22.11;59.20;101157.66;5051396;28;19920;-80
2021/06/05 04:55:54;;;;;;;;;;;;;;;22.17;58.81;101156.13;5056857;28;19916;-81
2021/06/05 04:58:58;;;;;;;;;;;;;;;22.23;59.37;101162.13;5047940;28;19913;-80
2021/06/05 05:01:42;;;;;;;;;;;;;;;22.20;59.17;101159.31;5056246;28;20377;-80
2021/06/05 05:04:27;;;;;;;;;;;;;;;22.23;59.30;101159.34;5040435;28;19913;-79
2021/06/05 05:07:11;;;;;;;;;;;;;;;22.31;58.40;101172.06;5039784;28;19913;-78
2021/06/05 05:09:56;;;;;;;;;;;;;;;22.66;57.60;101176.28;5053749;28;20373;-80
2021/06/05 05:13:00;;;;;;;;;;;;;;;22.75;57.83;101180.34;5053464;28;19912;-80
2021/06/05 05:15:45;;;;;;;;;;;;;;;22.86;57.08;101174.84;5058248;28;19916;-79
2021/06/05 05:18:30;;;;;;;;;;;;;;;22.88;56.84;101178.84;5056047;28;19913;-79
2021/06/05 05:21:33;;;;;;;;;;;;;;;22.84;57.46;101183.56;5052634;28;19916;-82
2021/06/05 05:24:19;;;;;;;;;;;;;;;22.93;56.96;101186.00;5056793;28;19913;-79
2021/06/05 05:27:03;;;;;;;;;;;;;;;22.71;57.74;101187.81;5055207;28;19912;-81
2021/06/05 05:29:48;;;;;;;;;;;;;;;22.68;58.36;101188.59;5052931;28;20300;-80
2021/06/05 05:32:32;;;;;;;;;;;;;;;22.66;58.65;101193.69;5055972;28;19912;-80
2021/06/05 05:35:17;;;;;;;;;;;;;;;22.64;57.50;101201.63;5061341;28;19912;-82
2021/06/05 05:38:06;;;;;;;;;;;;;;;22.67;57.09;101200.84;5058031;28;19913;-81
2021/06/05 05:40:51;;;;;;;;;;;;;;;22.50;57.60;101191.22;5058251;28;19916;-81
2021/06/05 05:49:42;;;;;;;;;;;;;;;22.61;57.66;101196.84;5049985;28;19913;-83
2021/06/05 05:52:27;;;;;;;;;;;;;;;22.67;57.13;101200.84;5054289;28;19912;-82
2021/06/05 05:55:11;;;;;;;;;;;;;;;22.70;57.09;101205.63;5058734;28;19917;-82
2021/06/05 05:58:01;;;;;;;;;;;;;;;22.79;56.77;101208.91;5056531;28;19913;-83
2021/06/05 06:00:47;;;;;;;;;;;;;;;22.75;56.86;101207.28;5053680;28;19920;-83
2021/06/05 06:03:51;;;;;;;;;;;;;;;22.84;56.40;101194.66;5054040;28;19995;-81
2021/06/05 06:06:35;;;;;;;;;;;;;;;22.94;56.62;101193.94;5063416;28;19920;-82
2021/06/05 06:09:20;;;;;;;;;;;;;;;22.84;56.56;101191.88;5037800;28;19913;-81
2021/06/05 06:12:05;;;;;;;;;;;;;;;23.00;56.17;101197.13;5048672;28;19913;-83
2021/06/05 06:14:50;;;;;;;;;;;;;;;23.02;56.43;101203.88;5059790;28;19912;-81
2021/06/05 06:17:35;;;;;;;;;;;;;;;23.14;56.24;101202.75;5055643;28;19912;-80
2021/06/05 06:20:31;;;;;;;;;;;;;;;23.29;56.01;101209.16;5061047;28;19917;-79
2021/06/05 06:26:25;;;;;;;;;;;;;;;23.51;54.48;101216.44;5045509;28;20309;-80
2021/06/05 06:29:14;;;;;;;;;;;;;;;23.67;54.03;101211.31;5053973;28;19912;-79
2021/06/05 06:32:00;;;;;;;;;;;;;;;23.47;54.35;101221.16;5058332;28;19913;-80
2021/06/05 06:34:44;;;;;;;;;;;;;;;23.54;54.19;101225.97;5058472;28;19912;-82
2021/06/05 06:46:44;;;;;;;;;;;;;;;23.81;53.52;101219.72;5041768;28;19913;-82
2021/06/05 06:49:29;;;;;;;;;;;;;;;23.75;53.77;101224.06;5061203;28;19913;-84
2021/06/05 06:52:13;;;;;;;;;;;;;;;23.97;53.57;101226.88;5059925;28;19912;-84
2021/06/05 06:54:57;;;;;;;;;;;;;;;24.20;52.09;101221.78;5063920;28;19920;-80
2021/06/05 06:57:42;;;;;;;;;;;;;;;24.15;52.14;101224.91;5061598;28;19913;-79
2021/06/05 07:00:29;;;;;;;;;;;;;;;24.06;52.31;101222.53;5058530;28;19916;-78
2021/06/05 07:03:15;;;;;;;;;;;;;;;24.14;51.76;101226.09;5056825;28;20373;-80
2021/06/05 07:06:01;;;;;;;;;;;;;;;24.23;51.95;101224.56;5061172;28;19912;-81
2021/06/05 07:08:45;;;;;;;;;;;;;;;24.90;49.96;101225.75;5062162;28;19917;-83
2021/06/05 07:11:32;;;;;;;;;;;;;;;25.47;48.19;101218.81;5058586;28;19913;-85
2021/06/05 07:14:36;;;;;;;;;;;;;;;26.12;46.39;101208.13;5055430;28;19917;-83
2021/06/05 07:17:40;;;;;;;;;;;;;;;26.73;45.00;101212.81;5058962;28;19912;-85
2021/06/05 07:20:24;;;;;;;;;;;;;;;27.51;43.03;101216.78;5059180;28;19921;-81
2021/06/05 07:23:09;;;;;;;;;;;;;;;27.03;44.52;101209.31;5044851;28;19912;-83
2021/06/05 07:25:54;;;;;;;;;;;;;;;26.72;44.44;101207.63;5054762;28;19913;-84
2021/06/05 07:28:42;;;;;;;;;;;;;;;25.91;46.46;101193.13;5066082;28;19913;-83
2021/06/05 07:31:29;;;;;;;;;;;;;;;26.04;46.36;101193.44;5064222;28;20555;-82
2021/06/05 07:34:14;;;;;;;;;;;;;;;26.02;46.33;101190.25;5058853;28;19912;-79
2021/06/05 07:37:04;;;;;;;;;;;;;;;25.89;46.16;101183.59;5057936;28;20304;-80
2021/06/05 07:39:49;;;;;;;;;;;;;;;25.99;46.30;101188.31;5063349;28;19913;-80
2021/06/05 07:42:37;;;;;;;;;;;;;;;26.55;45.09;101192.66;5060242;28;19912;-79
2021/06/05 07:48:26;;;;;;;;;;;;;;;25.91;45.36;101190.34;5059637;28;19917;-81
2021/06/05 07:51:29;;;;;;;;;;;;;;;26.05;45.25;101192.25;5054821;28;19913;-80
2021/06/05 07:54:14;;;;;;;;;;;;;;;26.93;43.81;101195.47;5060090;28;20380;-82
2021/06/05 07:56:58;;;;;;;;;;;;;;;31.06;34.76;101208.44;5062860;28;19913;-81
2021/06/05 07:59:45;;;;;;;;;;;;;;;31.60;32.52;101213.31;5058604;28;19913;-83
2021/06/05 08:02:30;;;;;;;;;;;;;;;33.51;29.73;101209.63;5055550;28;19916;-79
2021/06/05 08:05:15;;;;;;;;;;;;;;;29.01;37.13;101202.00;5058437;28;19913;-80
2021/06/05 08:07:59;;;;;;;;;;;;;;;28.32;39.10;101198.81;5059653;28;20384;-82
2021/06/05 08:10:45;;;;;;;;;;;;;;;28.49;45.07;101185.75;5065771;28;19913;-84
2021/06/05 08:13:30;;;;;;;;;;;;;;;28.00;43.88;101185.31;5059551;28;19913;-82
2021/06/05 08:16:15;;;;;;;;;;;;;;;27.70;46.04;101187.38;5059114;28;19913;-80
2021/06/05 08:19:00;;;;;;;;;;;;;;;27.58;46.88;101180.38;5062742;28;19912;-80
2021/06/05 08:21:46;;;;;;;;;;;;;;;27.51;47.14;101180.44;5060168;28;19916;-82
2021/06/05 08:27:38;;;;;;;;;;;;;;;27.08;44.39;101178.16;5059682;28;19917;-81
2021/06/05 08:30:28;;;;;;;;;;;;;;;26.93;45.15;101173.94;5057570;28;19913;-82
2021/06/05 08:33:13;;;;;;;;;;;;;;;26.89;47.45;101178.78;5055141;28;19913;-81
2021/06/05 08:35:58;;;;;;;;;;;;;;;26.88;47.73;101182.78;5060288;28;20296;-82
2021/06/05 08:38:43;;;;;;;;;;;;;;;27.04;49.13;101188.59;5057091;28;19913;-83
2021/06/05 08:41:31;;;;;;;;;;;;;;;27.14;50.28;101186.88;5061014;28;20376;-82
2021/06/05 08:44:19;;;;;;;;;;;;;;;27.04;47.62;101191.38;5042372;28;19917;-82
2021/06/05 08:47:27;;;;;;;;;;;;;;;26.80;46.29;101184.03;5041764;28;19913;-81
2021/06/05 08:50:16;;;;;;;;;;;;;;;26.81;47.69;101180.84;5047262;28;19916;-81
2021/06/05 08:53:14;;;;;;;;;;;;;;;27.05;47.18;101181.00;5056905;28;19913;-83
2021/06/05 08:59:03;;;;;;;;;;;;;;;26.89;48.05;101181.56;5023856;28;19913;-83
2021/06/05 09:01:49;;;;;;;;;;;;;;;26.91;46.09;101173.59;5041129;28;19921;-82
2021/06/05 09:04:36;;;;;;;;;;;;;;;32.57;31.07;101184.44;5035951;28;20385;-79
2021/06/05 09:10:25;;;;;;;;;;;;;;;36.08;25.10;101184.63;5044104;28;19913;-81
2021/06/05 09:13:10;;;;;;;;;;;;;;;36.40;24.05;101185.88;5044321;28;19913;-80
2021/06/05 09:16:13;;;;;;;;;;;;;;;35.92;24.52;101185.03;5054127;28;19913;-79
2021/06/05 09:19:07;;;;;;;;;;;;;;;32.29;29.52;101171.34;5044348;28;19913;-81
2021/06/05 09:21:57;;;;;;;;;;;;;;;30.76;32.01;101169.53;5040853;28;19917;-80
2021/06/05 09:24:44;;;;;;;;;;;;;;;29.89;33.92;101177.72;5047657;28;20293;-79
2021/06/05 09:27:34;;;;;;;;;;;;;;;29.48;34.56;101164.22;5043861;28;19916;-78
2021/06/05 09:30:31;;;;;;;;;;;;;;;28.55;37.06;101153.22;5042223;28;20285;-80
2021/06/05 09:33:28;;;;;;;;;;;;;;;28.02;38.19;101149.34;5035865;28;19916;-81
2021/06/05 09:36:31;;;;;;;;;;;;;;;28.14;37.52;101150.00;5046683;28;20297;-78
2021/06/05 09:39:34;;;;;;;;;;;;;;;27.83;38.71;101136.06;5042520;28;19913;-80
2021/06/05 09:42:30;;;;;;;;;;;;;;;27.55;38.72;101134.47;5040453;28;19917;-80
2021/06/05 09:45:26;;;;;;;;;;;;;;;27.34;39.60;101136.75;5052369;28;19912;-76
2021/06/05 09:48:32;;;;;;;;;;;;;;;27.37;39.48;101141.50;5043340;28;19916;-76
2021/06/05 09:51:23;;;;;;;;;;;;;;;27.03;40.73;101133.94;5042465;28;19917;-77
2021/06/05 09:54:32;;;;;;;;;;;;;;;27.24;39.46;101132.88;5037956;28;19916;-76
2021/06/05 09:57:23;;;;;;;;;;;;;;;27.61;38.76;101129.22;5060383;28;20305;-75
2021/06/05 10:00:11;;;;;;;;;;;;;;;27.53;37.92;101134.09;5044239;28;19913;-76
2021/06/05 10:03:18;;;;;;;;;;;;;;;27.63;38.63;101135.94;5047664;28;19921;-76
2021/06/05 10:06:17;;;;;;;;;;;;;;;27.54;38.90;101124.50;5048305;28;19913;-76
2021/06/05 10:12:27;;;;;;;;;;;;;;;27.19;39.31;101141.72;5059576;28;19912;-77
2021/06/05 10:15:14;;;;;;;;;;;;;;;27.53;37.91;101133.34;5058800;28;20288;-77
2021/06/05 10:18:01;;;;;;;;;;;;;;;27.03;39.93;101128.34;5061011;28;19913;-77
2021/06/05 10:20:55;;;;;;;;;;;;;;;26.56;41.04;101120.91;5058345;28;19917;-79
2021/06/05 10:23:43;;;;;;;;;;;;;;;27.01;38.72;101122.41;5049258;28;19912;-77
2021/06/05 10:26:46;;;;;;;;;;;;;;;27.11;39.13;101124.28;5044408;28;19913;-78
2021/06/05 10:29:44;;;;;;;;;;;;;;;27.17;38.85;101124.63;5037497;28;20377;-79
2021/06/05 10:32:37;;;;;;;;;;;;;;;27.07;39.72;101115.13;5044849;28;19921;-78
2021/06/05 10:35:31;;;;;;;;;;;;;;;27.00;39.64;101112.44;5049368;28;20381;-79
2021/06/05 10:38:19;;;;;;;;;;;;;;;26.88;38.97;101115.00;5050844;28;19912;-80
2021/06/05 10:41:05;;;;;;;;;;;;;;;26.79;39.78;101107.09;5059839;28;19916;-78
2021/06/05 10:43:50;;;;;;;;;;;;;;;27.01;39.00;101102.88;5050661;28;19912;-80
2021/06/05 10:46:59;;;;;;;;;;;;;;;27.02;37.48;101110.03;5052567;28;19946;-79
2021/06/05 10:50:11;;;;;;;;;;;;;;;26.57;40.28;101106.53;5057891;28;19912;-79
2021/06/05 10:53:17;;;;;;;;;;;;;;;26.47;40.52;101101.06;5055673;28;19967;-80
2021/06/05 10:56:13;;;;;;;;;;;;;;;26.62;40.33;101102.50;5057927;28;20377;-79
2021/06/05 10:58:59;;;;;;;;;;;;;;;26.86;38.64;101087.47;5056152;28;19912;-77
2021/06/05 11:01:46;;;;;;;;;;;;;;;27.20;38.63;101085.47;5059551;28;19917;-77
2021/06/05 11:04:30;;;;;;;;;;;;;;;26.68;40.15;101082.09;5051766;28;20284;-79
2021/06/05 11:07:24;;;;;;;;;;;;;;;26.34;40.99;101082.06;5054856;28;19913;-77
2021/06/05 11:10:09;;;;;;;;;;;;;;;26.38;40.80;101077.25;5059144;28;19913;-78
2021/06/05 11:12:54;;;;;;;;;;;;;;;26.67;39.90;101074.13;5021460;28;19913;-78
2021/06/05 11:15:50;;;;;;;;;;;;;;;26.90;39.52;101073.50;5053264;28;19912;-78
2021/06/05 11:18:42;;;;;;;;;;;;;;;27.19;38.83;101071.91;5058858;28;19913;-78
2021/06/05 11:21:27;;;;;;;;;;;;;;;26.75;40.07;101061.69;5056643;28;19920;-78
2021/06/05 11:24:13;;;;;;;;;;;;;;;26.70;40.34;101060.16;5039438;28;19913;-80
2021/06/05 11:26:59;;;;;;;;;;;;;;;27.07;39.14;101064.13;5061191;28;20300;-78
2021/06/05 11:30:08;;;;;;;;;;;;;;;27.09;38.83;101056.09;5054893;28;19913;-78
2021/06/05 11:33:09;;;;;;;;;;;;;;;26.77;39.75;101060.06;5048085;28;19913;-78
2021/06/05 11:35:59;;;;;;;;;;;;;;;26.54;40.11;101057.16;5056840;28;19913;-78
2021/06/05 11:44:58;;;;;;;;;;;;;;;26.96;38.93;101041.94;5054975;28;19913;-78
2021/06/05 11:47:43;;;;;;;;;;;;;;;26.70;39.67;101034.25;5063979;28;19912;-80
2021/06/05 11:50:32;;;;;;;;;;;;;;;26.71;39.19;101044.22;5068951;28;20534;-80
2021/06/05 11:53:29;;;;;;;;;;;;;;;26.62;39.82;101035.53;5055743;28;19913;-80
2021/06/05 11:56:22;;;;;;;;;;;;;;;26.89;38.74;101028.06;5059690;28;20332;-80
2021/06/05 11:59:27;;;;;;;;;;;;;;;26.64;39.52;101021.97;5056534;28;19917;-80
2021/06/05 12:02:34;;;;;;;;;;;;;;;27.04;38.37;101015.47;5040615;28;19938;-80
2021/06/05 12:05:22;;;;;;;;;;;;;;;26.59;39.64;101016.84;5057067;28;19912;-80
2021/06/05 12:11:32;;;;;;;;;;;;;;;26.27;40.69;101004.06;5070259;28;19916;-79
2021/06/05 12:15:18;;;;;;;;;;;;;;;26.26;40.82;101008.06;5075356;28;20453;-79
2021/06/05 12:17:44;;;;;;;;;;;;;;;26.42;40.46;100995.53;5036093;28;19913;-78
2021/06/05 12:20:39;;;;;;;;;;;;;;;26.26;40.50;100996.91;5041553;28;19913;-79
2021/06/05 12:23:27;;;;;;;;;;;;;;;26.47;39.56;101003.44;5036771;28;19917;-77
2021/06/05 12:26:17;;;;;;;;;;;;;;;26.46;40.03;100999.09;5036668;28;19913;-80
2021/06/05 12:29:11;;;;;;;;;;;;;;;26.37;40.10;101000.34;5045758;28;19912;-78
2021/06/05 12:31:57;;;;;;;;;;;;;;;26.29;40.39;100984.94;5057038;28;19912;-79
2021/06/05 12:34:42;;;;;;;;;;;;;;;26.45;39.96;100987.13;5039083;28;19912;-79
2021/06/05 12:37:31;;;;;;;;;;;;;;;26.47;39.67;100981.91;5059273;28;20051;-77
2021/06/05 12:40:19;;;;;;;;;;;;;;;26.53;39.25;100979.47;5057131;28;19913;-80
2021/06/05 12:43:08;;;;;;;;;;;;;;;26.45;39.30;100969.59;5054279;28;19916;-79
2021/06/05 12:45:56;;;;;;;;;;;;;;;26.35;39.46;100972.13;5036779;28;19912;-78
2021/06/05 12:48:40;;;;;;;;;;;;;;;26.29;39.83;100962.63;5052919;28;19912;-78
2021/06/05 12:57:46;;;;;;;;;;;;;;;26.48;39.33;100958.41;5056959;28;19912;-76
2021/06/05 13:00:51;;;;;;;;;;;;;;;26.54;39.31;100958.72;5055854;28;19913;-77
2021/06/05 13:03:40;;;;;;;;;;;;;;;26.46;38.65;100954.47;5049842;28;19916;-77
2021/06/05 13:06:27;;;;;;;;;;;;;;;26.48;39.07;100944.44;5055705;28;19912;-77
2021/06/05 13:09:23;;;;;;;;;;;;;;;26.21;39.08;100949.91;5053313;28;19913;-77
2021/06/05 13:15:44;;;;;;;;;;;;;;;26.20;38.98;100964.31;5052847;28;19912;-77
2021/06/05 13:21:39;;;;;;;;;;;;;;;25.97;39.92;100951.78;5053916;28;19917;-77
2021/06/05 13:24:23;;;;;;;;;;;;;;;25.91;40.47;100956.22;5057570;28;19927;-78
2021/06/05 13:27:17;;;;;;;;;;;;;;;26.15;39.88;100951.59;5057420;28;19916;-78
2021/06/05 13:30:37;;;;;;;;;;;;;;;26.18;39.95;100936.81;5052737;28;19912;-76
2021/06/05 13:33:26;;;;;;;;;;;;;;;26.03;40.56;100945.75;4971611;28;19914;-76
2021/06/05 13:36:19;;;;;;;;;;;;;;;26.01;40.49;100939.84;5052768;28;19912;-76
2021/06/05 13:39:04;;;;;;;;;;;;;;;26.16;39.64;100944.03;5056807;28;20373;-76
2021/06/05 13:41:49;;;;;;;;;;;;;;;26.01;40.22;100945.41;5051540;28;19928;-75
2021/06/05 13:44:34;;;;;;;;;;;;;;;25.92;40.35;100943.09;5050809;28;19913;-76
2021/06/05 13:47:19;;;;;;;;;;;;;;;25.82;40.41;100938.41;5051575;28;19916;-76
2021/06/05 13:50:05;;;;;;;;;;;;;;;25.94;40.24;100935.91;5055317;28;19912;-76
2021/06/05 13:52:50;;;;;;;;;;;;;;;26.05;39.62;100924.66;5050125;28;19912;-75
2021/06/05 13:55:41;;;;;;;;;;;;;;;25.99;39.59;100931.88;5057610;28;19917;-78
2021/06/05 13:58:27;;;;;;;;;;;;;;;25.96;39.76;100927.13;5055837;28;19912;-77
2021/06/05 14:01:15;;;;;;;;;;;;;;;25.90;39.85;100923.22;5039452;28;19912;-77
2021/06/05 14:04:00;;;;;;;;;;;;;;;25.83;39.78;100920.50;5058116;28;20454;-76
2021/06/05 14:06:44;;;;;;;;;;;;;;;25.98;38.89;100919.94;5056954;28;19913;-76
2021/06/05 14:09:29;;;;;;;;;;;;;;;25.96;39.55;100921.53;5054584;28;20364;-76
2021/06/05 14:12:15;;;;;;;;;;;;;;;25.96;39.33;100915.97;5056805;28;19912;-76
2021/06/05 14:15:03;;;;;;;;;;;;;;;25.93;39.76;100916.81;5056536;28;19913;-78
2021/06/05 14:17:49;;;;;;;;;;;;;;;26.03;39.73;100910.31;5034135;28;20369;-76
2021/06/05 14:20:52;;;;;;;;;;;;;;;26.00;39.86;100902.81;5038095;28;20380;-75
2021/06/05 14:23:37;;;;;;;;;;;;;;;26.09;39.31;100897.50;5033114;28;19917;-75
2021/06/05 14:26:22;;;;;;;;;;;;;;;26.06;39.55;100905.94;5035646;28;19913;-76
2021/06/05 14:29:06;;;;;;;;;;;;;;;25.96;39.99;100894.47;5041207;28;19913;-76
2021/06/05 14:31:52;;;;;;;;;;;;;;;26.17;39.41;100890.63;5023943;28;20385;-76
2021/06/05 14:34:37;;;;;;;;;;;;;;;25.96;39.87;100893.66;5042078;28;19921;-75
2021/06/05 14:37:23;;;;;;;;;;;;;;;25.94;40.13;100885.75;5057991;28;20277;-77
2021/06/05 14:40:08;;;;;;;;;;;;;;;26.09;40.04;100891.16;5058131;28;19916;-76
2021/06/05 14:43:12;;;;;;;;;;;;;;;26.01;40.20;100882.06;5054632;28;19917;-75
2021/06/05 14:45:58;;;;;;;;;;;;;;;26.05;40.28;100890.41;5058117;28;19912;-77
2021/06/05 14:48:43;;;;;;;;;;;;;;;26.00;40.54;100888.88;5059025;28;20653;-78
2021/06/05 14:54:32;;;;;;;;;;;;;;;25.90;41.04;100889.78;5056871;28;19912;-76
2021/06/05 14:57:18;;;;;;;;;;;;;;;25.84;41.50;100885.88;5051957;28;19916;-77
2021/06/05 15:00:05;;;;;;;;;;;;;;;25.88;41.36;100883.81;5060758;28;19917;-77
2021/06/05 15:02:50;;;;;;;;;;;;;;;25.75;41.83;100888.34;5054743;28;19916;-79
2021/06/05 15:05:36;;;;;;;;;;;;;;;25.76;41.96;100878.78;5053966;28;19912;-78
2021/06/05 15:08:21;;;;;;;;;;;;;;;25.75;42.04;100882.78;5048983;28;19912;-76
2021/06/05 15:14:27;;;;;;;;;;;;;;;25.58;42.80;100889.31;5053432;28;20384;-78
2021/06/05 15:23:59;;;;;;;;;;;;;;;25.25;44.89;100888.78;5037361;28;19917;-77
2021/06/05 15:26:43;;;;;;;;;;;;;;;25.13;45.69;100892.09;5055119;28;19913;-78
2021/06/05 15:29:28;;;;;;;;;;;;;;;25.12;45.51;100891.28;5057806;28;19916;-80
2021/06/05 15:32:13;;;;;;;;;;;;;;;25.01;46.58;100889.78;5059008;28;19917;-79
2021/06/05 15:34:59;;;;;;;;;;;;;;;24.84;47.01;100897.03;5057667;28;19917;-79
2021/06/05 15:37:43;;;;;;;;;;;;;;;24.81;47.18;100881.16;5062378;28;19913;-78
2021/06/05 15:40:28;;;;;;;;;;;;;;;24.83;46.78;100889.09;5060102;28;19917;-79